Time;durP1;ratioP1;P1;durP2;ratioP2;P2;SDS_P1;SDS_P2;PMS_P1;PMS_P2;Temp;Humidity;BMP_temperature;BMP_pressure;BME280_temperature;BME280_humidity;BME280_pressure;Samples;Min_cycle;Max_cycle;Signal;HPM_P1;HPM_P2
2024/01/01 00:02:24;;;;;;;;;14.33;5.00;;;;;8.30;100.00;100415.63;5089357;27;45319;-70
2024/01/01 00:04:49;;;;;;;;;1.00;1.00;;;;;8.51;100.00;100461.25;5094541;27;45512;-70
2024/01/01 00:07:15;;;;;;;;;3.67;3.67;;;;;8.54;100.00;100455.84;5088602;27;47317;-69
2024/01/01 00:09:40;;;;;;;;;3.33;2.67;;;;;8.68;100.00;100478.94;5094401;27;45229;-69
2024/01/01 00:12:08;;;;;;;;;5.33;4.00;;;;;8.67;100.00;100487.81;5088863;27;45392;-69
2024/01/01 00:14:34;;;;;;;;;7.33;3.33;;;;;8.70;100.00;100492.94;5090932;27;45484;-69
2024/01/01 00:16:59;;;;;;;;;3.00;2.00;;;;;8.68;100.00;100481.59;5099623;27;46936;-70
2024/01/01 00:19:24;;;;;;;;;7.00;4.00;;;;;8.36;100.00;100443.47;5095670;27;45305;-70
2024/01/01 00:21:50;;;;;;;;;3.00;2.67;;;;;8.41;100.00;100461.75;5087316;27;45431;-69
2024/01/01 00:24:16;;;;;;;;;4.00;2.00;;;;;8.46;100.00;100472.91;5095101;27;45284;-70
2024/01/01 00:26:43;;;;;;;;;3.33;3.00;;;;;8.63;100.00;100504.69;5085333;27;46128;-69
2024/01/01 00:29:09;;;;;;;;;2.67;2.00;;;;;8.63;100.00;100507.31;5101142;27;46029;-70
2024/01/01 00:31:36;;;;;;;;;3.00;1.00;;;;;8.62;100.00;100505.59;5092765;27;45529;-70
2024/01/01 00:34:01;;;;;;;;;3.00;2.00;;;;;8.46;100.00;100481.69;5088473;27;45432;-69
2024/01/01 00:36:27;;;;;;;;;3.00;2.00;;;;;8.35;100.00;100476.88;5089521;27;46246;-70
2024/01/01 00:38:53;;;;;;;;;6.00;2.00;;;;;8.62;100.00;100501.19;5095883;27;45318;-69
2024/01/01 00:41:18;;;;;;;;;5.00;3.00;;;;;8.44;100.00;100464.25;5095768;27;45253;-69
2024/01/01 00:43:44;;;;;;;;;3.00;3.00;;;;;8.37;100.00;100450.47;5094924;27;45587;-69
2024/01/01 00:46:10;;;;;;;;;8.33;2.00;;;;;8.41;100.00;100453.84;5082842;27;47077;-69
2024/01/01 00:48:35;;;;;;;;;4.00;2.00;;;;;8.58;100.00;100475.00;5081840;27;45365;-69
2024/01/01 00:51:01;;;;;;;;;5.00;2.00;;;;;8.57;100.00;100482.09;5081532;27;45479;-70
2024/01/01 00:53:26;;;;;;;;;2.67;2.67;;;;;8.58;100.00;100490.81;5089284;27;45790;-70
2024/01/01 00:55:52;;;;;;;;;7.00;2.00;;;;;8.55;100.00;100476.00;5097888;27;45323;-70
2024/01/01 00:58:17;;;;;;;;;3.00;2.00;;;;;8.39;100.00;100469.69;5099862;27;45312;-70
2024/01/01 01:00:42;;;;;;;;;6.00;3.00;;;;;8.47;100.00;100479.91;5087858;27;45433;-69
2024/01/01 01:03:08;;;;;;;;;2.33;2.00;;;;;8.45;100.00;100482.59;5094074;27;45320;-70
2024/01/01 01:05:33;;;;;;;;;5.00;4.00;;;;;8.31;100.00;100454.22;5092628;27;46918;-70
2024/01/01 01:07:58;;;;;;;;;5.33;3.00;;;;;8.51;100.00;100503.41;5099371;27;45368;-69
2024/01/01 01:10:24;;;;;;;;;4.67;3.00;;;;;8.49;100.00;100489.47;5089029;27;45343;-70
2024/01/01 01:12:53;;;;;;;;;6.00;3.00;;;;;8.18;100.00;100441.63;5082256;27;45587;-69
2024/01/01 01:15:19;;;;;;;;;9.00;3.67;;;;;8.31;100.00;100466.56;5100271;27;46139;-70
2024/01/01 01:17:44;;;;;;;;;4.33;1.33;;;;;8.39;100.00;100477.59;5084546;27;45334;-70
2024/01/01 01:20:10;;;;;;;;;9.00;2.33;;;;;8.40;100.00;100487.22;5091529;27;45517;-71
2024/01/01 01:22:36;;;;;;;;;9.67;4.00;;;;;8.38;100.00;100482.00;5087512;27;45510;-70
2024/01/01 01:25:01;;;;;;;;;13.33;7.00;;;;;8.22;100.00;100467.75;5084579;27;45949;-69
2024/01/01 01:27:26;;;;;;;;;10.00;7.67;;;;;8.42;100.00;100490.63;5090901;27;45803;-70
2024/01/01 01:29:52;;;;;;;;;9.33;8.00;;;;;8.39;100.00;100488.16;5081591;27;45634;-70
2024/01/01 01:32:17;;;;;;;;;19.67;13.33;;;;;8.26;100.00;100469.34;5085703;27;45610;-70
2024/01/01 01:34:42;;;;;;;;;63.50;43.25;;;;;8.33;100.00;100491.03;5086418;27;45392;-70
2024/01/01 01:37:08;;;;;;;;;34.75;32.50;;;;;8.41;100.00;100507.38;5095264;27;45411;-70
2024/01/01 01:39:36;;;;;;;;;25.67;22.67;;;;;8.38;100.00;100511.00;5091547;27;45415;-70
2024/01/01 01:42:01;;;;;;;;;7.00;6.33;;;;;8.30;100.00;100497.31;5086721;27;45317;-70
2024/01/01 01:44:29;;;;;;;;;5.67;3.33;;;;;8.23;100.00;100494.97;5084458;27;45174;-70
2024/01/01 01:46:54;;;;;;;;;5.00;4.00;;;;;8.33;100.00;100520.03;5086402;27;46646;-70
2024/01/01 01:49:19;;;;;;;;;8.67;3.00;;;;;8.38;100.00;100523.31;5089204;27;45390;-70
2024/01/01 01:51:48;;;;;;;;;7.00;3.33;;;;;8.06;100.00;100471.09;5093172;27;45469;-70
2024/01/01 01:54:14;;;;;;;;;5.00;2.00;;;;;8.42;100.00;100524.91;5080194;27;45270;-70
2024/01/01 01:56:40;;;;;;;;;3.33;2.00;;;;;8.38;100.00;100516.25;5086941;27;45293;-70
2024/01/01 01:59:06;;;;;;;;;3.00;2.00;;;;;8.23;100.00;100487.06;5089451;27;45380;-70
2024/01/01 02:01:31;;;;;;;;;5.33;3.00;;;;;8.32;100.00;100513.03;5080124;27;45269;-70
2024/01/01 02:03:57;;;;;;;;;4.00;3.00;;;;;8.44;100.00;100533.63;5095361;27;48108;-70
2024/01/01 02:06:23;;;;;;;;;4.00;2.00;;;;;8.41;100.00;100533.72;5088019;27;45313;-69
2024/01/01 02:08:48;;;;;;;;;2.00;1.00;;;;;8.35;100.00;100523.44;5087361;27;45513;-69
2024/01/01 02:11:14;;;;;;;;;4.00;2.33;;;;;8.14;100.00;100495.34;5084234;27;45585;-70
2024/01/01 02:13:39;;;;;;;;;6.67;2.00;;;;;8.20;100.00;100503.84;5086156;27;45514;-70
2024/01/01 02:16:05;;;;;;;;;2.33;1.67;;;;;8.35;100.00;100537.47;5090886;27;45230;-70
2024/01/01 02:18:31;;;;;;;;;5.33;2.00;;;;;8.31;100.00;100521.88;5092057;27;45340;-70
2024/01/01 02:20:56;;;;;;;;;5.00;1.33;;;;;8.37;100.00;100550.59;5088970;27;45377;-70
2024/01/01 02:23:22;;;;;;;;;3.00;2.00;;;;;8.36;100.00;100552.38;5096908;27;46077;-70
2024/01/01 02:25:47;;;;;;;;;7.00;2.00;;;;;8.31;100.00;100559.59;5090335;27;45388;-70
2024/01/01 02:28:14;;;;;;;;;4.33;2.00;;;;;8.35;100.00;100550.66;5081544;27;45475;-70
2024/01/01 02:30:39;;;;;;;;;6.67;2.67;;;;;8.34;100.00;100554.19;5083618;27;45754;-70
2024/01/01 02:33:16;;;;;;;;;0.00;0.00;;;;;8.33;100.00;100549.88;5094683;27;45328;-70
2024/01/01 02:35:43;;;;;;;;;5.33;2.00;;;;;8.32;100.00;100536.75;5085668;27;45386;-70
2024/01/01 02:38:08;;;;;;;;;5.00;2.67;;;;;8.26;100.00;100524.66;5082534;27;45361;-70
2024/01/01 02:40:35;;;;;;;;;2.33;2.00;;;;;8.30;100.00;100539.47;5087619;27;45478;-70
2024/01/01 02:43:01;;;;;;;;;3.00;1.33;;;;;8.31;100.00;100545.59;5090896;27;46139;-70
2024/01/01 02:45:27;;;;;;;;;8.00;3.00;;;;;8.32;100.00;100544.66;5091528;27;45344;-70
2024/01/01 02:47:53;;;;;;;;;2.67;2.00;;;;;8.32;100.00;100549.91;5084694;27;45446;-70
2024/01/01 02:50:20;;;;;;;;;2.67;1.67;;;;;8.34;100.00;100554.19;5098603;27;45437;-70
2024/01/01 02:52:46;;;;;;;;;7.67;3.00;;;;;8.28;100.00;100549.19;5084025;27;45865;-70
2024/01/01 02:55:11;;;;;;;;;2.33;1.00;;;;;8.20;100.00;100538.09;5081395;27;45241;-70
2024/01/01 02:57:36;;;;;;;;;8.00;3.00;;;;;8.34;100.00;100559.47;5081399;27;45465;-70
2024/01/01 03:00:03;;;;;;;;;3.00;2.33;;;;;8.17;100.00;100532.09;5081144;27;45264;-70
2024/01/01 03:02:28;;;;;;;;;4.00;2.00;;;;;8.32;100.00;100550.78;5078164;27;47095;-70
2024/01/01 03:04:54;;;;;;;;;4.33;3.00;;;;;8.35;100.00;100570.88;5095696;27;45249;-70
2024/01/01 03:07:19;;;;;;;;;2.67;0.00;;;;;8.38;100.00;100567.28;5079764;27;45436;-70
2024/01/01 03:09:44;;;;;;;;;5.33;2.67;;;;;8.38;100.00;100564.63;5086482;27;45429;-70
2024/01/01 03:12:10;;;;;;;;;11.33;3.00;;;;;8.37;100.00;100569.03;5089432;27;46158;-70
2024/01/01 03:14:35;;;;;;;;;5.00;1.00;;;;;8.36;100.00;100567.31;5081357;27;45609;-70
2024/01/01 03:17:00;;;;;;;;;4.00;3.00;;;;;8.06;100.00;100527.28;5089043;27;45368;-70
2024/01/01 03:19:26;;;;;;;;;3.33;2.00;;;;;8.38;100.00;100576.00;5084721;27;45429;-70
2024/01/01 03:21:51;;;;;;;;;5.00;2.00;;;;;8.42;100.00;100598.69;5083396;27;46198;-70
2024/01/01 03:24:16;;;;;;;;;2.33;1.67;;;;;8.42;100.00;100584.66;5086214;27;45878;-70
2024/01/01 03:26:42;;;;;;;;;4.67;3.00;;;;;8.43;100.00;100586.38;5084987;27;45286;-70
2024/01/01 03:29:07;;;;;;;;;8.33;3.67;;;;;8.15;100.00;100555.00;5081127;27;45452;-70
2024/01/01 03:31:33;;;;;;;;;5.33;2.33;;;;;8.40;100.00;100590.00;5085996;27;45411;-70
2024/01/01 03:33:58;;;;;;;;;3.00;1.67;;;;;8.41;100.00;100590.88;5083611;27;45289;-70
2024/01/01 03:36:24;;;;;;;;;4.00;2.00;;;;;8.35;100.00;100586.69;5088180;27;45381;-70
2024/01/01 03:38:49;;;;;;;;;5.00;4.00;;;;;8.21;100.00;100562.66;5085141;27;45384;-70
2024/01/01 03:41:15;;;;;;;;;10.67;8.00;;;;;8.30;100.00;100601.84;5090596;27;46240;-70
2024/01/01 03:43:40;;;;;;;;;7.33;4.67;;;;;8.28;100.00;100595.75;5089393;27;45404;-70
2024/01/01 03:46:05;;;;;;;;;9.00;5.33;;;;;8.32;100.00;100621.94;5089060;27;45555;-70
2024/01/01 03:48:30;;;;;;;;;8.00;3.00;;;;;8.28;100.00;100615.06;5096281;27;45363;-70
2024/01/01 03:50:56;;;;;;;;;3.00;2.00;;;;;8.30;100.00;100634.31;5089804;27;45223;-70
2024/01/01 03:53:21;;;;;;;;;3.67;1.67;;;;;8.19;100.00;100612.78;5097960;27;45233;-70
2024/01/01 03:55:46;;;;;;;;;3.67;2.00;;;;;8.27;100.00;100628.28;5092605;27;45376;-70
2024/01/01 03:58:12;;;;;;;;;7.00;2.00;;;;;8.25;100.00;100612.50;5087621;27;45158;-70
2024/01/01 04:00:37;;;;;;;;;7.00;1.00;;;;;8.23;100.00;100610.88;5092287;27;45993;-70
2024/01/01 04:03:03;;;;;;;;;5.33;2.00;;;;;8.20;100.00;100611.00;5098355;27;45232;-71
2024/01/01 04:05:28;;;;;;;;;3.67;2.00;;;;;8.16;100.00;100618.16;5092992;27;45416;-70
2024/01/01 04:07:54;;;;;;;;;3.00;1.00;;;;;8.01;100.00;100596.84;5088000;27;45364;-70
2024/01/01 04:10:20;;;;;;;;;2.00;2.00;;;;;8.16;100.00;100620.78;5097293;27;45319;-70
2024/01/01 04:12:46;;;;;;;;;2.00;1.00;;;;;8.09;100.00;100613.19;5088070;27;45463;-70
2024/01/01 04:15:11;;;;;;;;;2.00;0.00;;;;;8.13;100.00;100631.47;5100710;27;45324;-70
2024/01/01 04:17:36;;;;;;;;;5.33;1.67;;;;;8.11;100.00;100624.53;5088870;27;45320;-71
2024/01/01 04:20:02;;;;;;;;;8.00;1.00;;;;;8.06;100.00;100629.97;5086521;27;46280;-70
2024/01/01 04:22:28;;;;;;;;;1.00;1.00;;;;;8.04;100.00;100617.81;5090438;27;45400;-70
2024/01/01 04:24:53;;;;;;;;;3.00;2.00;;;;;8.02;100.00;100628.38;5086732;27;45289;-70
2024/01/01 04:27:19;;;;;;;;;1.67;1.00;;;;;8.05;100.00;100635.31;5092697;27;45426;-70
2024/01/01 04:29:44;;;;;;;;;1.00;1.00;;;;;8.03;100.00;100637.16;5093763;27;46073;-70
2024/01/01 04:32:09;;;;;;;;;6.33;2.00;;;;;8.01;100.00;100647.75;5081755;27;45396;-70
2024/01/01 04:34:35;;;;;;;;;5.33;0.00;;;;;8.00;100.00;100645.16;5093275;27;45282;-70
2024/01/01 04:37:01;;;;;;;;;1.67;1.00;;;;;7.84;100.00;100621.22;5087447;27;45217;-71
2024/01/01 04:39:27;;;;;;;;;1.33;1.00;;;;;7.91;100.00;100641.13;5093806;27;46184;-70
2024/01/01 04:41:52;;;;;;;;;1.33;1.00;;;;;7.91;100.00;100640.25;5098496;27;45249;-71
2024/01/01 04:44:18;;;;;;;;;1.67;1.33;;;;;7.95;100.00;100647.97;5087001;27;45207;-71
2024/01/01 04:46:46;;;;;;;;;1.67;1.67;;;;;7.74;100.00;100617.22;5094930;27;45255;-70
2024/01/01 04:49:11;;;;;;;;;1.67;1.67;;;;;7.94;100.00;100653.31;5084164;27;45883;-71
2024/01/01 04:51:36;;;;;;;;;0.33;0.33;;;;;7.94;100.00;100645.41;5083338;27;45390;-71
2024/01/01 04:54:02;;;;;;;;;4.67;1.00;;;;;7.71;100.00;100614.72;5084854;27;45295;-70
2024/01/01 04:56:27;;;;;;;;;2.00;1.00;;;;;7.85;100.00;100644.84;5086863;27;45836;-70
2024/01/01 04:58:55;;;;;;;;;2.00;1.00;;;;;7.81;100.00;100638.00;5085527;27;45387;-70
2024/01/01 05:01:20;;;;;;;;;2.00;0.67;;;;;7.90;100.00;100656.97;5088764;27;45328;-70
2024/01/01 05:03:45;;;;;;;;;3.00;1.33;;;;;7.83;100.00;100657.22;5088530;27;45413;-70
2024/01/01 05:06:11;;;;;;;;;3.33;2.00;;;;;7.81;100.00;100655.56;5085916;27;45693;-71
2024/01/01 05:08:36;;;;;;;;;0.00;0.00;;;;;7.80;100.00;100653.84;5082422;27;45523;-71
2024/01/01 05:11:05;;;;;;;;;4.00;1.00;;;;;7.83;100.00;100658.97;5082589;27;45496;-70
2024/01/01 05:13:30;;;;;;;;;3.00;2.00;;;;;7.85;100.00;100659.81;5081262;27;45383;-70
2024/01/01 05:15:56;;;;;;;;;3.00;1.00;;;;;7.79;100.00;100670.53;5083965;27;46330;-70
2024/01/01 05:18:21;;;;;;;;;2.67;1.00;;;;;7.61;100.00;100643.16;5086996;27;46831;-70
2024/01/01 05:20:49;;;;;;;;;3.33;1.00;;;;;7.79;100.00;100675.81;5090615;27;45423;-71
2024/01/01 05:23:18;;;;;;;;;3.00;1.67;;;;;7.85;100.00;100700.13;5097885;27;45265;-71
2024/01/01 05:25:43;;;;;;;;;3.00;1.00;;;;;7.62;100.00;100671.19;5098017;27;45357;-71
2024/01/01 05:28:08;;;;;;;;;2.67;2.00;;;;;7.81;100.00;100689.78;5092973;27;45943;-71
2024/01/01 05:30:35;;;;;;;;;1.67;1.33;;;;;7.81;100.00;100689.78;5088282;27;45429;-70
2024/01/01 05:33:00;;;;;;;;;2.00;1.00;;;;;7.80;100.00;100688.06;5088581;27;45438;-70
2024/01/01 05:35:26;;;;;;;;;1.33;1.33;;;;;7.71;100.00;100683.16;5094187;27;45298;-70
2024/01/01 05:37:51;;;;;;;;;0.00;0.00;;;;;7.78;100.00;100697.81;5092276;27;45439;-71
2024/01/01 05:40:16;;;;;;;;;5.00;2.00;;;;;7.73;100.00;100689.19;5096840;27;49255;-71
2024/01/01 05:42:42;;;;;;;;;0.00;0.00;;;;;7.74;100.00;100685.66;5100268;27;45309;-71
2024/01/01 05:45:07;;;;;;;;;1.00;1.00;;;;;7.66;100.00;100685.06;5088336;27;45586;-70
2024/01/01 05:47:33;;;;;;;;;1.00;0.00;;;;;7.71;100.00;100706.84;5087375;27;45420;-71
2024/01/01 05:49:58;;;;;;;;;2.67;1.00;;;;;7.69;100.00;100704.25;5094080;27;45261;-70
2024/01/01 05:52:24;;;;;;;;;3.00;1.00;;;;;7.57;100.00;100686.28;5097182;27;45332;-71
2024/01/01 05:54:49;;;;;;;;;2.33;1.00;;;;;7.37;100.00;100646.69;5096014;27;45400;-70
2024/01/01 05:57:14;;;;;;;;;0.00;0.00;;;;;7.65;100.00;100689.50;5087359;27;45406;-70
2024/01/01 05:59:40;;;;;;;;;3.00;1.00;;;;;7.52;100.00;100688.25;5090741;27;45217;-70
2024/01/01 06:02:05;;;;;;;;;1.67;0.00;;;;;7.65;100.00;100709.69;5097726;27;45420;-71
2024/01/01 06:04:30;;;;;;;;;4.00;1.00;;;;;7.69;100.00;100720.03;5098200;27;45460;-71
2024/01/01 06:06:56;;;;;;;;;1.00;0.67;;;;;7.65;100.00;100709.69;5084557;27;45996;-71
2024/01/01 06:09:22;;;;;;;;;1.00;1.00;;;;;7.68;100.00;100718.34;5081008;27;45230;-71
2024/01/01 06:11:48;;;;;;;;;3.00;1.00;;;;;7.64;100.00;100706.19;5081693;27;45258;-70
2024/01/01 06:14:14;;;;;;;;;2.00;1.00;;;;;7.68;100.00;100715.72;5092532;27;45322;-70
2024/01/01 06:16:42;;;;;;;;;4.67;1.00;;;;;7.38;100.00;100685.25;5092852;27;45341;-70
2024/01/01 06:19:08;;;;;;;;;0.33;0.33;;;;;7.42;100.00;100696.50;5080898;27;46168;-70
2024/01/01 06:21:33;;;;;;;;;3.67;2.00;;;;;7.64;100.00;100710.59;5093225;27;45294;-70
2024/01/01 06:23:58;;;;;;;;;2.00;1.33;;;;;7.59;100.00;100720.44;5091275;27;45296;-70
2024/01/01 06:26:24;;;;;;;;;1.33;1.33;;;;;7.62;100.00;100726.47;5097280;27;45282;-70
2024/01/01 06:28:49;;;;;;;;;2.67;1.00;;;;;7.56;100.00;100717.94;5087450;27;45379;-71
2024/01/01 06:31:15;;;;;;;;;3.33;0.67;;;;;7.52;100.00;100721.59;5095939;27;45273;-70
2024/01/01 06:33:40;;;;;;;;;3.00;0.33;;;;;7.62;100.00;100737.00;5087043;27;45266;-70
2024/01/01 06:36:06;;;;;;;;;2.00;1.00;;;;;7.60;100.00;100736.16;5096147;27;46117;-71
2024/01/01 06:38:31;;;;;;;;;4.00;1.33;;;;;7.31;100.00;100710.03;5097551;27;45392;-70
2024/01/01 06:40:56;;;;;;;;;3.00;1.67;;;;;7.63;100.00;100749.22;5080925;27;45389;-71
2024/01/01 06:43:22;;;;;;;;;0.00;0.00;;;;;7.61;100.00;100743.16;5083187;27;45166;-70
2024/01/01 06:45:47;;;;;;;;;1.00;1.00;;;;;7.41;100.00;100719.31;5090858;27;45277;-71
2024/01/01 06:48:12;;;;;;;;;7.33;2.00;;;;;7.51;100.00;100744.41;5081030;27;45290;-70
2024/01/01 06:50:38;;;;;;;;;3.00;1.33;;;;;7.62;100.00;100773.84;5079488;27;45333;-71
2024/01/01 06:53:03;;;;;;;;;1.00;1.00;;;;;7.42;100.00;100728.94;5087769;27;45257;-70
2024/01/01 06:55:30;;;;;;;;;1.00;1.00;;;;;7.61;100.00;100771.25;5080329;27;46402;-70
2024/01/01 06:57:58;;;;;;;;;0.00;0.00;;;;;7.44;100.00;100747.28;5089435;27;45347;-70
2024/01/01 07:00:23;;;;;;;;;2.33;1.00;;;;;7.60;100.00;100770.38;5085088;27;45377;-70
2024/01/01 07:02:48;;;;;;;;;5.67;1.00;;;;;7.65;100.00;100767.59;5092700;27;45413;-70
2024/01/01 07:05:14;;;;;;;;;4.00;1.00;;;;;7.65;100.00;100779.00;5096435;27;48222;-70
2024/01/01 07:07:39;;;;;;;;;2.33;1.00;;;;;7.30;100.00;100742.50;5092250;27;45387;-70
2024/01/01 07:10:05;;;;;;;;;2.00;1.67;;;;;7.62;100.00;100800.16;5084160;27;45411;-70
2024/01/01 07:12:30;;;;;;;;;2.33;0.33;;;;;7.65;100.00;100814.97;5093512;27;45506;-70
2024/01/01 07:14:56;;;;;;;;;2.33;0.67;;;;;7.57;100.00;100819.63;5089568;27;45429;-70
2024/01/01 07:17:22;;;;;;;;;2.00;1.00;;;;;7.67;100.00;100819.28;5093283;27;45507;-70
2024/01/01 07:19:47;;;;;;;;;2.67;1.00;;;;;7.61;100.00;100816.00;5100710;27;45317;-71
2024/01/01 07:22:13;;;;;;;;;2.00;0.67;;;;;7.68;100.00;100823.63;5096225;27;45493;-71
2024/01/01 07:24:39;;;;;;;;;6.33;1.00;;;;;7.70;100.00;100818.28;5085098;27;48406;-71
2024/01/01 07:27:05;;;;;;;;;0.00;0.00;;;;;7.38;100.00;100764.16;5101648;27;45171;-71
2024/01/01 07:29:31;;;;;;;;;3.33;1.67;;;;;7.63;100.00;100820.28;5093612;27;45454;-71
2024/01/01 07:31:57;;;;;;;;;1.00;1.00;;;;;7.34;100.00;100771.31;5095976;27;45334;-71
2024/01/01 07:34:23;;;;;;;;;1.33;1.00;;;;;7.69;100.00;100829.75;5089559;27;45999;-71
2024/01/01 07:36:48;;;;;;;;;1.33;0.33;;;;;7.65;100.00;100823.75;5089748;27;45757;-71
2024/01/01 07:39:19;;;;;;;;;1.33;1.33;;;;;7.51;100.00;100811.97;5088254;27;45301;-71
2024/01/01 07:41:47;;;;;;;;;1.33;0.33;;;;;7.65;100.00;100841.31;5089945;27;45222;-71
2024/01/01 07:44:13;;;;;;;;;2.00;1.00;;;;;7.64;100.00;100835.16;5094306;27;45599;-71
2024/01/01 07:46:39;;;;;;;;;2.67;1.00;;;;;7.65;100.00;100838.66;5096707;27;45230;-71
2024/01/01 07:49:06;;;;;;;;;0.00;0.00;;;;;7.64;100.00;100848.34;5110380;27;45536;-71
2024/01/01 07:51:32;;;;;;;;;3.00;0.00;;;;;7.63;100.00;100857.13;5084097;27;45425;-70
2024/01/01 07:53:57;;;;;;;;;1.00;1.00;;;;;7.63;100.00;100851.00;5099007;27;45251;-71
2024/01/01 07:56:23;;;;;;;;;3.00;1.00;;;;;7.67;100.00;100861.38;5097663;27;45308;-70
2024/01/01 07:58:49;;;;;;;;;1.00;1.00;;;;;7.61;100.00;100853.69;5093738;27;45241;-70
2024/01/01 08:01:18;;;;;;;;;1.00;0.00;;;;;7.52;100.00;100851.38;5090005;27;45809;-70
2024/01/01 08:03:43;;;;;;;;;1.00;1.00;;;;;7.61;100.00;100852.84;5082532;27;45438;-70
2024/01/01 08:06:09;;;;;;;;;2.00;1.00;;;;;7.54;100.00;100849.56;5098187;27;45329;-70
2024/01/01 08:08:34;;;;;;;;;0.00;0.00;;;;;7.58;100.00;100850.31;5083305;27;45682;-70
2024/01/01 08:10:59;;;;;;;;;8.33;1.00;;;;;7.72;100.00;100880.50;5082312;27;45508;-71
2024/01/01 08:13:25;;;;;;;;;3.00;0.00;;;;;7.77;100.00;100890.88;5097050;27;46970;-70
2024/01/01 08:15:53;;;;;;;;;2.00;1.00;;;;;7.59;100.00;100855.50;5082220;27;45358;-70
2024/01/01 08:18:18;;;;;;;;;2.00;1.00;;;;;7.77;100.00;100889.13;5095612;27;45356;-70
2024/01/01 08:20:43;;;;;;;;;3.33;1.00;;;;;7.65;100.00;100863.22;5086992;27;45249;-71
2024/01/01 08:23:10;;;;;;;;;1.00;1.00;;;;;7.69;100.00;100871.88;5098198;27;47019;-70
2024/01/01 08:25:36;;;;;;;;;2.67;0.67;;;;;7.83;100.00;100895.94;5094191;27;45348;-71
2024/01/01 08:28:01;;;;;;;;;1.00;1.00;;;;;7.81;100.00;100895.13;5094767;27;45298;-70
2024/01/01 08:30:26;;;;;;;;;4.33;1.33;;;;;7.88;100.00;100904.56;5085360;27;45384;-70
2024/01/01 08:32:52;;;;;;;;;0.67;0.67;;;;;7.70;100.00;100892.00;5095147;27;45302;-70
2024/01/01 08:35:17;;;;;;;;;3.67;2.00;;;;;7.85;100.00;100908.13;5084301;27;45388;-70
2024/01/01 08:37:43;;;;;;;;;4.00;1.00;;;;;7.71;100.00;100884.06;5082445;27;45421;-70
2024/01/01 08:40:14;;;;;;;;;1.33;1.00;;;;;7.94;100.00;100916.63;5082082;27;45456;-70
2024/01/01 08:42:40;;;;;;;;;3.00;2.67;;;;;8.00;100.00;100932.22;5082978;27;45431;-70
2024/01/01 08:45:06;;;;;;;;;2.00;1.00;;;;;7.63;100.00;100869.44;5094968;27;45382;-71
2024/01/01 08:47:31;;;;;;;;;3.67;1.00;;;;;7.95;100.00;100919.19;5081336;27;45472;-70
2024/01/01 08:49:56;;;;;;;;;2.00;1.00;;;;;8.08;100.00;100952.09;5094323;27;45424;-70
2024/01/01 08:52:22;;;;;;;;;3.00;1.67;;;;;8.08;100.00;100949.47;5090926;27;48237;-70
2024/01/01 08:54:47;;;;;;;;;1.00;1.00;;;;;8.14;100.00;100940.50;5094455;27;45450;-69
2024/01/01 08:57:13;;;;;;;;;7.33;2.00;;;;;7.95;100.00;100906.03;5088693;27;45420;-69
2024/01/01 08:59:39;;;;;;;;;1.00;1.00;;;;;7.99;100.00;100909.44;5098444;27;45410;-70
2024/01/01 09:02:05;;;;;;;;;2.33;1.00;;;;;8.20;100.00;100940.31;5100042;27;45679;-70
2024/01/01 09:04:32;;;;;;;;;3.00;1.00;;;;;8.08;100.00;100917.03;5094648;27;45301;-70
2024/01/01 09:07:00;;;;;;;;;2.00;1.00;;;;;8.28;100.00;100948.81;5085110;27;45479;-70
2024/01/01 09:09:26;;;;;;;;;2.00;1.00;;;;;8.27;100.00;100936.53;5087549;27;45475;-70
2024/01/01 09:11:51;;;;;;;;;1.00;1.00;;;;;8.14;100.00;100911.53;5088098;27;46181;-70
2024/01/01 09:14:17;;;;;;;;;3.00;1.00;;;;;8.43;100.00;100950.91;5090636;27;45394;-70
2024/01/01 09:16:42;;;;;;;;;2.67;1.00;;;;;8.43;100.00;100943.00;5083448;27;45325;-70
2024/01/01 09:19:08;;;;;;;;;3.00;1.00;;;;;8.49;100.00;100960.38;5091695;27;45408;-70
2024/01/01 09:21:35;;;;;;;;;1.00;0.00;;;;;8.50;100.00;100955.06;5085514;27;46568;-70
2024/01/01 09:24:01;;;;;;;;;2.00;1.00;;;;;8.24;100.00;100907.66;5096591;27;45320;-71
2024/01/01 09:26:28;;;;;;;;;2.00;1.00;;;;;8.59;100.00;100973.16;5097236;27;45206;-70
2024/01/01 09:28:53;;;;;;;;;2.33;1.00;;;;;8.50;100.00;100944.50;5088798;27;45752;-70
2024/01/01 09:31:21;;;;;;;;;3.67;3.00;;;;;8.53;100.00;100946.16;5083266;27;45618;-71
2024/01/01 09:33:46;;;;;;;;;1.33;1.33;;;;;8.56;100.00;100972.41;5084415;27;45401;-70
2024/01/01 09:36:13;;;;;;;;;3.33;2.00;;;;;8.68;100.00;100966.69;5099740;27;45299;-70
2024/01/01 09:38:39;;;;;;;;;1.00;0.00;;;;;8.65;100.00;100961.53;5080462;27;45294;-70
2024/01/01 09:41:04;;;;;;;;;1.67;1.00;;;;;8.73;100.00;100965.63;5083844;27;45348;-70
2024/01/01 09:43:30;;;;;;;;;1.00;1.00;;;;;8.63;100.00;100956.34;5093284;27;45247;-70
2024/01/01 09:45:55;;;;;;;;;3.00;1.00;;;;;8.68;100.00;100964.06;5101179;27;45426;-70
2024/01/01 09:48:21;;;;;;;;;4.00;0.00;;;;;8.65;100.00;100938.66;5098208;27;45907;-70
2024/01/01 09:50:49;;;;;;;;;1.00;0.67;;;;;8.87;100.00;100962.44;5088194;27;46099;-70
2024/01/01 09:53:17;;;;;;;;;0.00;0.00;;;;;8.96;100.00;100975.31;5095223;27;45503;-71
2024/01/01 09:55:53;;;;;;;;;1.67;1.00;;;;;9.00;100.00;100987.44;5081506;27;45468;-71
2024/01/01 09:58:18;;;;;;;;;3.67;1.00;;;;;9.05;100.00;100993.44;5085005;27;45586;-71
2024/01/01 10:00:44;;;;;;;;;1.67;0.00;;;;;9.03;100.00;100982.06;5094190;27;45415;-70
2024/01/01 10:03:10;;;;;;;;;1.00;1.00;;;;;9.12;100.00;100981.72;5083849;27;45539;-69
2024/01/01 10:05:36;;;;;;;;;1.00;1.00;;;;;9.16;100.00;100993.03;5081771;27;45311;-69
2024/01/01 10:08:09;;;;;;;;;4.00;1.00;;;;;9.20;100.00;100990.19;5082403;27;45299;-70
2024/01/01 10:10:34;;;;;;;;;2.33;1.00;;;;;9.20;99.72;100981.41;5086566;27;48175;-68
2024/01/01 10:13:10;;;;;;;;;2.67;0.67;;;;;9.26;100.00;100981.19;5094546;27;45485;-68
2024/01/01 10:15:40;;;;;;;;;4.00;3.67;;;;;9.18;100.00;100956.88;5087559;27;45447;-68
2024/01/01 10:18:10;;;;;;;;;2.33;1.00;;;;;9.36;98.79;100982.53;5083087;27;45466;-68
2024/01/01 10:20:36;;;;;;;;;5.67;3.00;;;;;9.41;99.24;100988.50;5082037;27;47371;-69
2024/01/01 10:23:21;;;;;;;;;2.67;1.33;;;;;9.48;100.00;100981.19;5086289;27;45646;-69
2024/01/01 10:25:49;;;;;;;;;2.00;0.67;;;;;9.53;99.80;100987.16;5090540;27;45257;-69
2024/01/01 10:28:16;;;;;;;;;3.00;1.67;;;;;9.54;98.82;100981.81;5085861;27;45488;-68
2024/01/01 10:30:47;;;;;;;;;3.67;2.00;;;;;9.62;98.75;100992.09;5093903;27;45964;-68
2024/01/01 10:33:13;;;;;;;;;5.00;3.33;;;;;9.65;96.64;100984.88;5082458;27;45456;-69
2024/01/01 10:35:40;;;;;;;;;5.33;2.67;;;;;9.63;97.82;100984.09;5083403;27;45245;-69
2024/01/01 10:38:06;;;;;;;;;4.00;1.00;;;;;9.72;98.78;100990.75;5098664;27;45601;-68
2024/01/01 10:40:31;;;;;;;;;2.00;2.00;;;;;9.75;96.80;100978.28;5091817;27;45304;-68
2024/01/01 10:42:57;;;;;;;;;1.67;1.00;;;;;9.75;97.87;100978.28;5091985;27;45341;-68
2024/01/01 10:45:22;;;;;;;;;1.67;1.67;;;;;9.79;96.31;100964.03;5094023;27;45436;-69
2024/01/01 10:47:49;;;;;;;;;2.33;1.33;;;;;9.85;97.93;100973.50;5087155;27;45543;-68
2024/01/01 10:50:28;;;;;;;;;1.67;1.00;;;;;9.87;98.40;100969.88;5089145;27;46395;-68
2024/01/01 10:53:24;;;;;;;;;2.00;1.00;;;;;9.95;98.36;100969.53;5087516;27;45314;-68
2024/01/01 10:56:27;;;;;;;;;1.67;0.00;;;;;9.97;97.16;100975.66;5096194;27;45459;-68
2024/01/01 10:59:16;;;;;;;;;8.00;1.33;;;;;9.98;97.52;100971.22;5088164;27;45258;-68
2024/01/01 11:01:43;;;;;;;;;1.67;1.00;;;;;10.00;96.41;100972.88;5112542;27;47709;-68
2024/01/01 11:04:11;;;;;;;;;2.00;1.00;;;;;10.07;97.69;100978.75;5092685;27;45340;-69
2024/01/01 11:06:42;;;;;;;;;1.00;1.00;;;;;10.09;97.72;100977.75;5094067;27;45303;-68
2024/01/01 11:09:20;;;;;;;;;1.00;1.00;;;;;10.13;96.92;100979.34;5098650;27;45521;-69
2024/01/01 11:11:52;;;;;;;;;1.33;0.33;;;;;10.16;94.54;100976.63;5089132;27;46217;-68
2024/01/01 11:14:34;;;;;;;;;1.33;1.00;;;;;10.19;97.93;100967.69;5090599;27;45373;-68
2024/01/01 11:17:02;;;;;;;;;1.67;1.00;;;;;10.19;97.41;100970.34;5087597;27;45353;-68
2024/01/01 11:19:41;;;;;;;;;4.00;0.67;;;;;10.25;94.95;100978.00;5098620;27;45444;-69
2024/01/01 11:22:29;;;;;;;;;1.33;1.00;;;;;10.37;95.86;100980.97;5093122;27;47334;-68